LEAMLEAL

Guest
Details From LEAM - Almeria
To LEAL - Alicante
Flight Number -
Tags generated
Created
Modified
Stats Distance 122 nm / 226 km
Max Altitude 5,800 ft / 1,768 m
Waypoints 3
Social Downloads 4
Likes 0
Share VATSIM

Download

Looking for another format? Having issues loading an existing format? Contact us
Advertisement - Login to hide

Notes

Basic altitude profile: - Ascent Rate: 2500ft/min - Ascent Speed: 250kts - Cruise Altitude: 35000ft - Cruise Speed: 420kts - Descent Rate: 1500ft/min - Descent Speed: 250kts Options: - Use NATs: yes - Use PACOTS: yes - Use low airways: yes - Use high airways: yes

Route

LEAM SORBA LEAL

ID Type Via Altitude Latitude Longitude Leg Dist Tot Dist Heading (true) Name
O LEAM APT - 0 ft / 0 m 36.84393˚ -2.37010˚ - 0 nm - Almeria
SORBA FIX - 5,800 ft / 1,768 m 37.03570˚ -2.12885˚ 16 nm 16 nm 45° / 45° -
O LEAL APT - 0 ft / 0 m 38.28217˚ -0.55816˚ 105 nm 122 nm 44° / 45° Alicante

Altitude Profile

Advertisement - Login to hide

LEAM

Details ICAO LEAM (LEI)
Name Almeria
Region Spain
Timezone Unknown (UTC+0.0)
Stats Elevation 70 ft / 21 m (AMSL)
Location 36.843935° -2.370097°
Runways 1
Magnetic Variation 0.287° W

METAR

LEAM 151800Z VRB01KT 9999 SCT090 16/13 Q1009

Decode

TAF

TAF LEAM 151400Z 1515/1615 23012KT 9999 FEW045 TX19/1515Z TN09/1607Z BECMG 1521/1524 08008KT

Decode

Departure Runways

ID Width Length Bearing (true) Bearing (mag) Surface Threshold Offset Overrun Length
08 148 ft / 45 m 10,484 ft / 3,196 m 72.94° 73.23° Asphalt 492 ft / 150 m 191 ft / 58 m
26 148 ft / 45 m 10,484 ft / 3,196 m 252.96° 253.25° Asphalt 0 ft / 0 m 150 ft / 46 m

LEAL

Details ICAO LEAL (ALC)
Name Alicante
Region Spain
Timezone Europe/Madrid (UTC+1.0)
Stats Elevation 141 ft / 43 m (AMSL)
Location 38.282169° -0.558157°
Runways 1
Magnetic Variation 0.184° E

METAR

LEAL 151800Z 32008KT 290V350 9999 BKN050 16/09 Q1010 NOSIG

Decode

TAF

TAF TAF LEAL 151700Z 1518/1618 32005KT 9999 FEW030 TX17/1613Z TN10/1606Z PROB30 TEMPO 1518/1521 RA BKN025 PROB40 TEMPO 1600/1610 31015KT

Decode

Destination Runways

ID Width Length Bearing (true) Bearing (mag) Surface Threshold Offset Overrun Length
10 148 ft / 45 m 9,799 ft / 2,987 m 100.07° 99.89° Asphalt 0 ft / 0 m 164 ft / 50 m
28 148 ft / 45 m 9,799 ft / 2,987 m 280.09° 279.91° Asphalt 0 ft / 0 m 197 ft / 60 m

Approach Navaids

Runway Type Ident Frequency Range Bearing (true) Bearing (mag) Slope Elevation
10 Localiser IAT 110.30 MHz 18 nm / 33 km 100.09° 99.91° - 29 ft / 9 m (AMSL)
10 Glidescope IAT 110.30 MHz 10 nm / 19 km 100.09° 99.91° 3.00° 129 ft / 39 m (AMSL)
10 DME IAT 110.30 MHz 18 nm / 33 km - - - 129 ft / 39 m (AMSL)